Home > Products > Valid Products > TAF

000
FTUS45 KBOI 280520
TAFBOI
TAF
KBOI 280520Z 2806/2906 14005KT P6SM BKN200
     FM281800 30006KT P6SM SCT200
     FM290400 14005KT P6SM BKN200=



000
FTUS45 KBOI 280520
TAFMYL
TAF
KMYL 280520Z 2806/2906 VRB05KT P6SM BKN150
     FM281800 31006KT P6SM SCT200=



000
FTUS45 KBOI 280520
TAFBNO
TAF
KBNO 280520Z 2806/2906 30012KT P6SM BKN200
     FM280800 VRB05KT P6SM BKN150
     FM290200 30011KT P6SM SCT150=



000
FTUS45 KBOI 280520
TAFTWF
TAF
KTWF 280520Z 2806/2906 19010KT P6SM BKN150
     FM281700 02006KT P6SM BKN100
     FM282100 36007KT P6SM VCSH BKN100
     FM290300 14005KT P6SM SCT100 BKN150=



000
FTUS45 KBOI 280520
TAFBKE
TAF
KBKE 280520Z 2806/2906 VRB03KT P6SM BKN150
     FM281800 31010KT P6SM SCT150=



000
FTUS45 KBOI 280520
TAFBKE
TAF
KBKE 280520Z 2806/2906 VRB03KT P6SM BKN150
     FM281800 31010KT P6SM SCT150=



000
FTUS45 KBOI 280520
TAFMYL
TAF
KMYL 280520Z 2806/2906 VRB05KT P6SM BKN150
     FM281800 31006KT P6SM SCT200=



000
FTUS45 KBOI 280520
TAFBOI
TAF
KBOI 280520Z 2806/2906 14005KT P6SM BKN200
     FM281800 30006KT P6SM SCT200
     FM290400 14005KT P6SM BKN200=



000
FTUS45 KBOI 280520
TAFJER
TAF
KJER 280520Z 2806/2906 09009KT P6SM BKN200
     FM282100 11005KT P6SM BKN150=



000
FTUS45 KBOI 280520
TAFBNO
TAF
KBNO 280520Z 2806/2906 30012KT P6SM BKN200
     FM280800 VRB05KT P6SM BKN150
     FM290200 30011KT P6SM SCT150=



000
FTUS45 KBOI 280520
TAFTWF
TAF
KTWF 280520Z 2806/2906 19010KT P6SM BKN150
     FM281700 02006KT P6SM BKN100
     FM282100 36007KT P6SM VCSH BKN100
     FM290300 14005KT P6SM SCT100 BKN150=



000
FTUS45 KBOI 280520
TAFJER
TAF
KJER 280520Z 2806/2906 09009KT P6SM BKN200
     FM282100 11005KT P6SM BKN150=



000
FTUS45 KBOI 280306 AAA
TAFBNO
TAF AMD
KBNO 280306Z 2803/2824 27012KT P6SM BKN250
     FM280400 32011KT P6SM BKN200
     FM281300 12005KT P6SM SCT150=



000
FTUS45 KBOI 280306 AAA
TAFBNO
TAF AMD
KBNO 280306Z 2803/2824 27012KT P6SM BKN250
     FM280400 32011KT P6SM BKN200
     FM281300 12005KT P6SM SCT150=



000
FTUS45 KBOI 272327
TAFJER
TAF
KJER 272327Z 2800/2824 VRB05KT P6SM BKN200
     FM280600 09009KT P6SM BKN150
     FM282100 25005KT P6SM SCT200=



000
FTUS45 KBOI 272327
TAFMYL
TAF
KMYL 272327Z 2800/2824 34008KT P6SM FEW250
     FM280600 VRB05KT P6SM BKN150
     FM281800 29006KT P6SM FEW200=



000
FTUS45 KBOI 272327
TAFTWF
TAF
KTWF 272327Z 2800/2824 02006KT P6SM BKN200
     FM280400 19010KT P6SM BKN150
     FM281700 02006KT P6SM SCT150
     FM282100 36007KT P6SM VCSH BKN150=



000
FTUS45 KBOI 272327
TAFBNO
TAF
KBNO 272327Z 2800/2824 VRB05KT P6SM BKN250
     FM280100 32011KT P6SM BKN200
     FM281300 12005KT P6SM SCT150=



000
FTUS45 KBOI 272327
TAFBOI
TAF
KBOI 272327Z 2800/2824 31007KT P6SM SCT250
     FM280500 14005KT P6SM BKN200
     FM281800 30005KT P6SM SCT200=



000
FTUS45 KBOI 272327
TAFBKE
TAF
KBKE 272327Z 2800/2824 34005KT P6SM SCT200
     FM280500 VRB03KT P6SM BKN200
     FM281800 31007KT P6SM FEW200=



000
FTUS45 KBOI 272327
TAFBOI
TAF
KBOI 272327Z 2800/2824 31007KT P6SM SCT250
     FM280500 14005KT P6SM BKN200
     FM281800 30005KT P6SM SCT200=



000
FTUS45 KBOI 272327
TAFJER
TAF
KJER 272327Z 2800/2824 VRB05KT P6SM BKN200
     FM280600 09009KT P6SM BKN150
     FM282100 25005KT P6SM SCT200=



000
FTUS45 KBOI 272327
TAFBKE
TAF
KBKE 272327Z 2800/2824 34005KT P6SM SCT200
     FM280500 VRB03KT P6SM BKN200
     FM281800 31007KT P6SM FEW200=



000
FTUS45 KBOI 272327
TAFTWF
TAF
KTWF 272327Z 2800/2824 02006KT P6SM BKN200
     FM280400 19010KT P6SM BKN150
     FM281700 02006KT P6SM SCT150
     FM282100 36007KT P6SM VCSH BKN150=



000
FTUS45 KBOI 272327
TAFMYL
TAF
KMYL 272327Z 2800/2824 34008KT P6SM FEW250
     FM280600 VRB05KT P6SM BKN150
     FM281800 29006KT P6SM FEW200=



000
FTUS45 KBOI 272327
TAFBNO
TAF
KBNO 272327Z 2800/2824 VRB05KT P6SM BKN250
     FM280100 32011KT P6SM BKN200
     FM281300 12005KT P6SM SCT150=



000
FTUS45 KBOI 272104 AAA
TAFBNO
TAF AMD
KBNO 272104Z 2721/2818 14012G20KT P6SM SCT120 BKN200
     FM280100 27006KT P6SM SCT120 BKN200=



000
FTUS45 KBOI 272104 AAA
TAFBNO
TAF AMD
KBNO 272104Z 2721/2818 14012G20KT P6SM SCT120 BKN200
     FM280100 27006KT P6SM SCT120 BKN200=



000
FTUS45 KBOI 271720
TAFBOI
TAF
KBOI 271720Z 2718/2818 31007KT P6SM SCT200
     FM280500 14005KT P6SM SCT120 BKN200=



000
FTUS45 KBOI 271720
TAFMYL
TAF
KMYL 271720Z 2718/2818 VRB05KT P6SM SKC=



000
FTUS45 KBOI 271720
TAFBOI
TAF
KBOI 271720Z 2718/2818 31007KT P6SM SCT200
     FM280500 14005KT P6SM SCT120 BKN200=



000
FTUS45 KBOI 271720
TAFBKE
TAF
KBKE 271720Z 2718/2818 VRB03KT P6SM SKC
     FM272300 31010KT P6SM SCT200
     FM280500 VRB03KT P6SM BKN200=



000
FTUS45 KBOI 271720
TAFJER
TAF
KJER 271720Z 2718/2818 VRB05KT P6SM BKN200
     FM280600 08006KT P6SM SCT120 BKN200=



000
FTUS45 KBOI 271720
TAFTWF
TAF
KTWF 271720Z 2718/2818 02006KT P6SM BKN200
     FM280400 19010KT P6SM SCT120 BKN200=



000
FTUS45 KBOI 271720
TAFBNO
TAF
KBNO 271720Z 2718/2818 VRB06KT P6SM BKN200
     FM280300 27006KT P6SM SCT120 BKN200=



000
FTUS45 KBOI 271720
TAFJER
TAF
KJER 271720Z 2718/2818 VRB05KT P6SM BKN200
     FM280600 08006KT P6SM SCT120 BKN200=



000
FTUS45 KBOI 271720
TAFBNO
TAF
KBNO 271720Z 2718/2818 VRB06KT P6SM BKN200
     FM280300 27006KT P6SM SCT120 BKN200=



000
FTUS45 KBOI 271720
TAFMYL
TAF
KMYL 271720Z 2718/2818 VRB05KT P6SM SKC=



000
FTUS45 KBOI 271720
TAFTWF
TAF
KTWF 271720Z 2718/2818 02006KT P6SM BKN200
     FM280400 19010KT P6SM SCT120 BKN200=



000
FTUS45 KBOI 271720
TAFBKE
TAF
KBKE 271720Z 2718/2818 VRB03KT P6SM SKC
     FM272300 31010KT P6SM SCT200
     FM280500 VRB03KT P6SM BKN200=



000
FTUS45 KBOI 271120
TAFBOI
TAF
KBOI 271120Z 2712/2812 14005KT P6SM FEW200
     FM271700 31006KT P6SM SCT200
     FM272100 31010KT P6SM BKN200
     FM280400 VRB04KT P6SM SCT120 BKN200=



000
FTUS45 KBOI 271120
TAFBNO
TAF
KBNO 271120Z 2712/2812 VRB06KT P6SM FEW100 BKN200=



000
FTUS45 KBOI 271120
TAFBKE
TAF
KBKE 271120Z 2712/2812 VRB03KT P6SM SKC
     FM272300 30008KT P6SM SCT200
     FM280500 VRB03KT P6SM BKN200=



000
FTUS45 KBOI 271120
TAFJER
TAF
KJER 271120Z 2712/2812 08007KT P6SM BKN200
     FM271600 VRB05KT P6SM SCT100 BKN200=



000
FTUS45 KBOI 271120
TAFTWF
TAF
KTWF 271120Z 2712/2812 19010KT P6SM BKN200
     FM271600 VRB06KT P6SM BKN200
     FM280400 19010KT P6SM SCT100 BKN200=



000
FTUS45 KBOI 271120
TAFMYL
TAF
KMYL 271120Z 2712/2812 VRB05KT P6SM SCT200=



000
FTUS45 KBOI 271120
TAFTWF
TAF
KTWF 271120Z 2712/2812 19010KT P6SM BKN200
     FM271600 VRB06KT P6SM BKN200
     FM280400 19010KT P6SM SCT100 BKN200=



000
FTUS45 KBOI 271120
TAFBOI
TAF
KBOI 271120Z 2712/2812 14005KT P6SM FEW200
     FM271700 31006KT P6SM SCT200
     FM272100 31010KT P6SM BKN200
     FM280400 VRB04KT P6SM SCT120 BKN200=



000
FTUS45 KBOI 271120
TAFBKE
TAF
KBKE 271120Z 2712/2812 VRB03KT P6SM SKC
     FM272300 30008KT P6SM SCT200
     FM280500 VRB03KT P6SM BKN200=



000
FTUS45 KBOI 271120
TAFJER
TAF
KJER 271120Z 2712/2812 08007KT P6SM BKN200
     FM271600 VRB05KT P6SM SCT100 BKN200=



000
FTUS45 KBOI 271120
TAFBNO
TAF
KBNO 271120Z 2712/2812 VRB06KT P6SM FEW100 BKN200=



000
FTUS45 KBOI 271120
TAFMYL
TAF
KMYL 271120Z 2712/2812 VRB05KT P6SM SCT200=



000
FTUS45 KBOI 270520
TAFMYL
TAF
KMYL 270520Z 2706/2806 VRB03KT P6SM SKC
     FM271900 24006KT P6SM SCT200
     FM280100 30005KT P6SM SCT200=



000
FTUS45 KBOI 270520
TAFBKE
TAF
KBKE 270520Z 2706/2806 VRB03KT P6SM SKC
     FM271800 28006KT P6SM SCT200=



000
FTUS45 KBOI 270520
TAFMYL
TAF
KMYL 270520Z 2706/2806 VRB03KT P6SM SKC
     FM271900 24006KT P6SM SCT200
     FM280100 30005KT P6SM SCT200=



000
FTUS45 KBOI 270520
TAFTWF
TAF
KTWF 270520Z 2706/2806 17009KT P6SM SCT200
     FM271600 34007KT P6SM BKN200
     FM280300 19007KT P6SM SCT110 BKN180=



000
FTUS45 KBOI 270520
TAFJER
TAF
KJER 270520Z 2706/2806 07006KT P6SM SCT200
     FM271900 02005KT P6SM BKN200
     FM280300 08004KT P6SM SCT120 BKN180=



000
FTUS45 KBOI 270520
TAFTWF
TAF
KTWF 270520Z 2706/2806 17009KT P6SM SCT200
     FM271600 34007KT P6SM BKN200
     FM280300 19007KT P6SM SCT110 BKN180=



000
FTUS45 KBOI 270520
TAFBOI
TAF
KBOI 270520Z 2706/2806 14005KT P6SM SKC
     FM271700 31007KT P6SM BKN200
     FM280400 VRB03KT P6SM SCT140 BKN200=



000
FTUS45 KBOI 270520
TAFJER
TAF
KJER 270520Z 2706/2806 07006KT P6SM SCT200
     FM271900 02005KT P6SM BKN200
     FM280300 08004KT P6SM SCT120 BKN180=



000
FTUS45 KBOI 270520
TAFBKE
TAF
KBKE 270520Z 2706/2806 VRB03KT P6SM SKC
     FM271800 28006KT P6SM SCT200=



000
FTUS45 KBOI 270520
TAFBNO
TAF
KBNO 270520Z 2706/2806 29005KT P6SM SKC
     FM271500 10006KT P6SM SCT200
     FM280300 28006KT P6SM BKN200=



000
FTUS45 KBOI 270520
TAFBOI
TAF
KBOI 270520Z 2706/2806 14005KT P6SM SKC
     FM271700 31007KT P6SM BKN200
     FM280400 VRB03KT P6SM SCT140 BKN200=



000
FTUS45 KBOI 270520
TAFBNO
TAF
KBNO 270520Z 2706/2806 29005KT P6SM SKC
     FM271500 10006KT P6SM SCT200
     FM280300 28006KT P6SM BKN200=



000
FTUS45 KBOI 262331
TAFTWF
TAF
KTWF 262331Z 2700/2724 33008KT P6SM SCT200
     FM270400 19010KT P6SM SCT200
     FM271600 32007KT P6SM BKN200=



000
FTUS45 KBOI 262331
TAFBOI
TAF
KBOI 262331Z 2700/2724 31007KT P6SM SKC
     FM270400 VRB04KT P6SM SKC
     FM270900 14005KT P6SM SKC
     FM271700 31007KT P6SM BKN200=



000
FTUS45 KBOI 262331
TAFMYL
TAF
KMYL 262331Z 2700/2724 26005KT P6SM SKC
     FM270300 VRB03KT P6SM SKC
     FM271700 24006KT P6SM SCT200=



000
FTUS45 KBOI 262331
TAFJER
TAF
KJER 262331Z 2700/2724 25006KT P6SM SCT200
     FM270400 07008KT P6SM SCT200
     FM271700 26007KT P6SM BKN200=



000
FTUS45 KBOI 262331
TAFBNO
TAF
KBNO 262331Z 2700/2724 14005KT P6SM SKC
     FM270400 28005KT P6SM SKC
     FM271500 10006KT P6SM SCT200=



000
FTUS45 KBOI 262331
TAFBKE
TAF
KBKE 262331Z 2700/2724 33006KT P6SM SKC
     FM270500 VRB03KT P6SM SKC
     FM271800 28006KT P6SM SCT200=



000
FTUS45 KBOI 262331
TAFBNO
TAF
KBNO 262331Z 2700/2724 14005KT P6SM SKC
     FM270400 28005KT P6SM SKC
     FM271500 10006KT P6SM SCT200=



000
FTUS45 KBOI 262331
TAFJER
TAF
KJER 262331Z 2700/2724 25006KT P6SM SCT200
     FM270400 07008KT P6SM SCT200
     FM271700 26007KT P6SM BKN200=



000
FTUS45 KBOI 262331
TAFTWF
TAF
KTWF 262331Z 2700/2724 33008KT P6SM SCT200
     FM270400 19010KT P6SM SCT200
     FM271600 32007KT P6SM BKN200=



000
FTUS45 KBOI 262331
TAFMYL
TAF
KMYL 262331Z 2700/2724 26005KT P6SM SKC
     FM270300 VRB03KT P6SM SKC
     FM271700 24006KT P6SM SCT200=



000
FTUS45 KBOI 262331
TAFBOI
TAF
KBOI 262331Z 2700/2724 31007KT P6SM SKC
     FM270400 VRB04KT P6SM SKC
     FM270900 14005KT P6SM SKC
     FM271700 31007KT P6SM BKN200=



000
FTUS45 KBOI 262331
TAFBKE
TAF
KBKE 262331Z 2700/2724 33006KT P6SM SKC
     FM270500 VRB03KT P6SM SKC
     FM271800 28006KT P6SM SCT200=



000
FTUS45 KBOI 261720
TAFBNO
TAF
KBNO 261720Z 2618/2718 08006KT P6SM SKC
     FM270600 27005KT P6SM BKN200=



000
FTUS45 KBOI 261720
TAFBOI
TAF
KBOI 261720Z 2618/2718 31007KT P6SM SKC
     FM270400 VRB04KT P6SM SKC
     FM270900 14005KT P6SM BKN200=



000
FTUS45 KBOI 261720
TAFMYL
TAF
KMYL 261720Z 2618/2718 VRB03KT P6SM SKC
     FM262000 24006KT P6SM SKC
     FM270300 VRB03KT P6SM SKC=



000
FTUS45 KBOI 261720
TAFTWF
TAF
KTWF 261720Z 2618/2718 33008KT P6SM SKC
     FM270400 19010KT P6SM BKN200=



000
FTUS45 KBOI 261720
TAFBOI
TAF
KBOI 261720Z 2618/2718 31007KT P6SM SKC
     FM270400 VRB04KT P6SM SKC
     FM270900 14005KT P6SM BKN200=



000
FTUS45 KBOI 261720
TAFJER
TAF
KJER 261720Z 2618/2718 25006KT P6SM SKC
     FM270400 07008KT P6SM BKN200=



000
FTUS45 KBOI 261720
TAFJER
TAF
KJER 261720Z 2618/2718 25006KT P6SM SKC
     FM270400 07008KT P6SM BKN200=



000
FTUS45 KBOI 261720
TAFBKE
TAF
KBKE 261720Z 2618/2718 VRB03KT P6SM SKC
     FM262200 31007KT P6SM SKC
     FM270500 VRB03KT P6SM SKC=



000
FTUS45 KBOI 261120
TAFBNO
TAF
KBNO 261120Z 2612/2712 VRB05KT P6SM SKC=



000
FTUS45 KBOI 261120
TAFBOI
TAF
KBOI 261120Z 2612/2712 VRB04KT P6SM SKC
     FM262000 31007KT P6SM SKC
     FM270400 VRB04KT P6SM SKC=



000
FTUS45 KBOI 261120
TAFBOI
TAF
KBOI 261120Z 2612/2712 VRB04KT P6SM SKC
     FM262000 31007KT P6SM SKC
     FM270400 VRB04KT P6SM SKC=



000
FTUS45 KBOI 261120
TAFTWF
TAF
KTWF 261120Z 2612/2712 19010KT P6SM SKC
     FM261500 30008KT P6SM SKC
     FM270300 17006KT P6SM SKC
     FM270600 19010KT P6SM SKC=



000
FTUS45 KBOI 261120
TAFJER
TAF
KJER 261120Z 2612/2712 VRB05KT P6SM SKC
     FM261500 22006KT P6SM SKC
     FM262000 26007KT P6SM SKC
     FM270400 VRB05KT P6SM SKC=



000
FTUS45 KBOI 261120
TAFBNO
TAF
KBNO 261120Z 2612/2712 VRB05KT P6SM SKC=



000
FTUS45 KBOI 261120
TAFBKE
TAF
KBKE 261120Z 2612/2712 VRB03KT P6SM SKC
     FM262300 31007KT P6SM SKC
     FM270500 VRB03KT P6SM SKC=



000
FTUS45 KBOI 261120
TAFTWF
TAF
KTWF 261120Z 2612/2712 19010KT P6SM SKC
     FM261500 30008KT P6SM SKC
     FM270300 17006KT P6SM SKC
     FM270600 19010KT P6SM SKC=



000
FTUS45 KBOI 261120
TAFJER
TAF
KJER 261120Z 2612/2712 VRB05KT P6SM SKC
     FM261500 22006KT P6SM SKC
     FM262000 26007KT P6SM SKC
     FM270400 VRB05KT P6SM SKC=



000
FTUS45 KBOI 261120
TAFBKE
TAF
KBKE 261120Z 2612/2712 VRB03KT P6SM SKC
     FM262300 31007KT P6SM SKC
     FM270500 VRB03KT P6SM SKC=



000
FTUS45 KBOI 261120
TAFMYL
TAF
KMYL 261120Z 2612/2712 VRB04KT P6SM SKC=



000
FTUS45 KBOI 261120
TAFMYL
TAF
KMYL 261120Z 2612/2712 VRB04KT P6SM SKC=



000
FTUS45 KBOI 260520
TAFBKE
TAF
KBKE 260520Z 2606/2706 VRB03KT P6SM SKC=



000
FTUS45 KBOI 260520
TAFBOI
TAF
KBOI 260520Z 2606/2706 VRB04KT P6SM SKC
     FM261800 31007KT P6SM SKC
     FM270300 VRB04KT P6SM SKC=



000
FTUS45 KBOI 260520
TAFBKE
TAF
KBKE 260520Z 2606/2706 VRB03KT P6SM SKC=



000
FTUS45 KBOI 260520
TAFJER
TAF
KJER 260520Z 2606/2706 VRB05KT P6SM SKC
     FM261800 26006KT P6SM SKC
     FM270400 VRB05KT P6SM SKC=



000
FTUS45 KBOI 260520
TAFTWF
TAF
KTWF 260520Z 2606/2706 20010KT P6SM SKC
     FM261700 35007KT P6SM SKC
     FM270400 17006KT P6SM SKC=



000
FTUS45 KBOI 260520
TAFTWF
TAF
KTWF 260520Z 2606/2706 20010KT P6SM SKC
     FM261700 35007KT P6SM SKC
     FM270400 17006KT P6SM SKC=



000
FTUS45 KBOI 260520
TAFJER
TAF
KJER 260520Z 2606/2706 VRB05KT P6SM SKC
     FM261800 26006KT P6SM SKC
     FM270400 VRB05KT P6SM SKC=



000
FTUS45 KBOI 260520
TAFBNO
TAF
KBNO 260520Z 2606/2706 VRB05KT P6SM SKC=



000
FTUS45 KBOI 260520
TAFBNO
TAF
KBNO 260520Z 2606/2706 VRB05KT P6SM SKC=



000
FTUS45 KBOI 260520
TAFMYL
TAF
KMYL 260520Z 2606/2706 VRB03KT P6SM SKC
     FM262100 22006KT P6SM SKC
     FM270200 VRB03KT P6SM SKC=



000
FTUS45 KBOI 260520
TAFMYL
TAF
KMYL 260520Z 2606/2706 VRB03KT P6SM SKC
     FM262100 22006KT P6SM SKC
     FM270200 VRB03KT P6SM SKC=



000
FTUS45 KBOI 260520
TAFBOI
TAF
KBOI 260520Z 2606/2706 VRB04KT P6SM SKC
     FM261800 31007KT P6SM SKC
     FM270300 VRB04KT P6SM SKC=



000
FTUS45 KBOI 252320
TAFJER
TAF
KJER 252320Z 2600/2624 25009KT P6SM SKC
     FM260300 VRB05KT P6SM SKC
     FM261800 26006KT P6SM SKC=



000
FTUS45 KBOI 252320
TAFMYL
TAF
KMYL 252320Z 2600/2624 24007KT P6SM SKC
     FM260300 VRB03KT P6SM SKC
     FM262100 22006KT P6SM SKC=



000
FTUS45 KBOI 252320
TAFTWF
TAF
KTWF 252320Z 2600/2624 31011KT P6SM SKC
     FM260300 20010KT P6SM SKC
     FM261700 35007KT P6SM SKC=



000
FTUS45 KBOI 252320
TAFBNO
TAF
KBNO 252320Z 2600/2624 VRB05KT P6SM SKC=



000
FTUS45 KBOI 252320
TAFMYL
TAF
KMYL 252320Z 2600/2624 24007KT P6SM SKC
     FM260300 VRB03KT P6SM SKC
     FM262100 22006KT P6SM SKC=



000
FTUS45 KBOI 252320
TAFBKE
TAF
KBKE 252320Z 2600/2624 31009KT P6SM SKC
     FM260400 VRB03KT P6SM SKC=



000
FTUS45 KBOI 252320
TAFBOI
TAF
KBOI 252320Z 2600/2624 29007KT P6SM SKC
     FM260400 VRB04KT P6SM SKC
     FM261800 31007KT P6SM SKC=



000
FTUS45 KBOI 251720
TAFJER
TAF
KJER 251720Z 2518/2618 23009KT P6SM SKC
     FM252100 27009KT P6SM SKC
     FM260300 VRB05KT P6SM SKC=



000
FTUS45 KBOI 251720
TAFJER
TAF
KJER 251720Z 2518/2618 23009KT P6SM SKC
     FM252100 27009KT P6SM SKC
     FM260300 VRB05KT P6SM SKC=



000
FTUS45 KBOI 251720
TAFTWF
TAF
KTWF 251720Z 2518/2618 28011KT P6SM SKC
     FM260300 20010KT P6SM SKC=



000
FTUS45 KBOI 251720
TAFBOI
TAF
KBOI 251720Z 2518/2618 31007KT P6SM SKC
     FM260400 VRB04KT P6SM SKC=



000
FTUS45 KBOI 251720
TAFBOI
TAF
KBOI 251720Z 2518/2618 31007KT P6SM SKC
     FM260400 VRB04KT P6SM SKC=



000
FTUS45 KBOI 251720
TAFMYL
TAF
KMYL 251720Z 2518/2618 VRB03KT P6SM SKC
     FM252100 24008KT P6SM SKC
     FM260300 VRB03KT P6SM SKC=



000
FTUS45 KBOI 251720
TAFMYL
TAF
KMYL 251720Z 2518/2618 VRB03KT P6SM SKC
     FM252100 24008KT P6SM SKC
     FM260300 VRB03KT P6SM SKC=



000
FTUS45 KBOI 251720
TAFBKE
TAF
KBKE 251720Z 2518/2618 VRB03KT P6SM SKC
     FM252100 31009KT P6SM SKC
     FM260400 VRB04KT P6SM SKC=



000
FTUS45 KBOI 251720
TAFTWF
TAF
KTWF 251720Z 2518/2618 28011KT P6SM SKC
     FM260300 20010KT P6SM SKC=



000
FTUS45 KBOI 251720
TAFBKE
TAF
KBKE 251720Z 2518/2618 VRB03KT P6SM SKC
     FM252100 31009KT P6SM SKC
     FM260400 VRB04KT P6SM SKC=



000
FTUS45 KBOI 251720
TAFBNO
TAF
KBNO 251720Z 2518/2618 VRB05KT P6SM SKC=



000
FTUS45 KBOI 251120
TAFBKE
TAF
KBKE 251120Z 2512/2612 VRB03KT P6SM SKC
     FM252100 31009KT P6SM SKC
     FM260400 VRB04KT P6SM SKC=



000
FTUS45 KBOI 251120
TAFBOI
TAF
KBOI 251120Z 2512/2612 VRB04KT P6SM SKC
     FM251900 32008KT P6SM SKC
     FM260400 VRB04KT P6SM SKC=



000
FTUS45 KBOI 251120
TAFJER
TAF
KJER 251120Z 2512/2612 19005KT P6SM SKC
     FM251600 23009KT P6SM SKC
     FM252100 27009KT P6SM SKC
     FM260300 VRB05KT P6SM SKC=



000
FTUS45 KBOI 251120
TAFMYL
TAF
KMYL 251120Z 2512/2612 VRB03KT P6SM SKC
     FM252100 24008KT P6SM SKC
     FM260300 VRB03KT P6SM SKC=



000
FTUS45 KBOI 251120
TAFBNO
TAF
KBNO 251120Z 2512/2612 VRB05KT P6SM SKC=



000
FTUS45 KBOI 251120
TAFTWF
TAF
KTWF 251120Z 2512/2612 20012KT P6SM SKC
     FM251600 28011KT P6SM SKC
     FM260300 20010KT P6SM SKC=



000
FTUS45 KBOI 251120
TAFJER
TAF
KJER 251120Z 2512/2612 19005KT P6SM SKC
     FM251600 23009KT P6SM SKC
     FM252100 27009KT P6SM SKC
     FM260300 VRB05KT P6SM SKC=



000
FTUS45 KBOI 251120
TAFBNO
TAF
KBNO 251120Z 2512/2612 VRB05KT P6SM SKC=



000
FTUS45 KBOI 251120
TAFMYL
TAF
KMYL 251120Z 2512/2612 VRB03KT P6SM SKC
     FM252100 24008KT P6SM SKC
     FM260300 VRB03KT P6SM SKC=



000
FTUS45 KBOI 251120
TAFBKE
TAF
KBKE 251120Z 2512/2612 VRB03KT P6SM SKC
     FM252100 31009KT P6SM SKC
     FM260400 VRB04KT P6SM SKC=



000
FTUS45 KBOI 251120
TAFBOI
TAF
KBOI 251120Z 2512/2612 VRB04KT P6SM SKC
     FM251900 32008KT P6SM SKC
     FM260400 VRB04KT P6SM SKC=



000
FTUS45 KBOI 251120
TAFTWF
TAF
KTWF 251120Z 2512/2612 20012KT P6SM SKC
     FM251600 28011KT P6SM SKC
     FM260300 20010KT P6SM SKC=



    US Dept of Commerce
    National Oceanic and Atmospheric Administration
    National Weather Service
    1325 East West Highway
    Silver Spring, MD 20910
    Page Author: NWS Internet Services Team
Disclaimer
Information Quality
Credits
Glossary
Privacy Policy
Freedom of Information Act (FOIA)
About Us
Career Opportunities